Time;durP1;ratioP1;P1;durP2;ratioP2;P2;SDS_P1;SDS_P2;PMS_P1;PMS_P2;Temp;Humidity;BMP_temperature;BMP_pressure;BME280_temperature;BME280_humidity;BME280_pressure;Samples;Min_cycle;Max_cycle;Signal;HPM_P1;HPM_P2
2022/06/25 00:01:46;;;;;;;3.47;2.70;;;;;;;16.62;100.00;100801.75;5069696;28;20091;-72
2022/06/25 00:06:56;;;;;;;3.58;2.28;;;;;;;16.61;100.00;100793.94;5071120;28;20392;-71
2022/06/25 00:09:21;;;;;;;5.82;3.00;;;;;;;16.57;100.00;100797.66;5062414;28;20021;-72
2022/06/25 00:14:30;;;;;;;2.80;2.33;;;;;;;16.52;100.00;100810.19;5071399;28;20039;-72
2022/06/25 00:16:56;;;;;;;6.60;2.53;;;;;;;16.52;100.00;100807.56;5071024;28;20391;-71
2022/06/25 00:19:21;;;;;;;4.20;2.72;;;;;;;16.50;100.00;100809.41;5072052;28;20024;-72
2022/06/25 00:21:46;;;;;;;5.18;2.65;;;;;;;16.47;100.00;100810.41;5068117;28;20059;-72
2022/06/25 00:24:11;;;;;;;4.15;2.72;;;;;;;16.50;100.00;100812.88;5068857;28;20059;-71
2022/06/25 00:26:37;;;;;;;4.07;2.65;;;;;;;16.47;100.00;100813.03;5070600;28;20376;-71
2022/06/25 00:29:02;;;;;;;4.95;2.83;;;;;;;16.43;100.00;100811.47;5071420;28;20048;-72
2022/06/25 00:31:28;;;;;;;4.78;3.00;;;;;;;16.42;100.00;100811.56;5071999;28;20368;-71
2022/06/25 00:33:53;;;;;;;3.47;2.70;;;;;;;16.39;100.00;100805.50;5054578;28;20025;-71
2022/06/25 00:36:19;;;;;;;3.13;2.53;;;;;;;16.42;100.00;100808.94;5071681;28;20376;-71
2022/06/25 00:38:44;;;;;;;7.55;2.90;;;;;;;16.37;100.00;100803.88;5071201;28;20020;-71
2022/06/25 00:41:11;;;;;;;3.70;2.63;;;;;;;16.39;100.00;100810.78;5070960;28;20176;-72
2022/06/25 00:43:40;;;;;;;7.88;3.22;;;;;;;16.32;100.00;100812.00;5065258;28;20056;-71
2022/06/25 00:46:06;;;;;;;4.00;2.90;;;;;;;16.32;100.00;100812.00;5068848;28;20024;-72
2022/06/25 00:48:31;;;;;;;4.75;2.75;;;;;;;16.29;100.00;100809.53;5070051;28;20060;-72
2022/06/25 00:50:58;;;;;;;3.30;2.90;;;;;;;16.28;100.00;100815.69;5070701;28;20111;-72
2022/06/25 00:53:31;;;;;;;3.70;2.80;;;;;;;16.28;100.00;100817.47;5065383;28;20060;-72
2022/06/25 00:55:59;;;;;;;4.45;3.17;;;;;;;16.29;100.00;100811.31;5070039;28;20381;-72
2022/06/25 00:58:31;;;;;;;7.32;2.95;;;;;;;16.27;100.00;100821.03;5067688;28;20024;-71
2022/06/25 01:00:59;;;;;;;4.38;3.10;;;;;;;16.22;100.00;100812.50;5071125;28;20036;-71
2022/06/25 01:03:25;;;;;;;4.60;3.25;;;;;;;16.26;100.00;100822.81;5063799;28;20021;-72
2022/06/25 01:05:50;;;;;;;4.28;3.45;;;;;;;16.15;100.00;100822.44;5070559;28;20043;-71
2022/06/25 01:08:18;;;;;;;5.68;3.28;;;;;;;16.12;100.00;100823.47;5073223;28;20056;-72
2022/06/25 01:10:43;;;;;;;5.82;3.42;;;;;;;16.09;100.00;100823.63;5073305;28;20464;-72
2022/06/25 01:13:09;;;;;;;5.97;3.10;;;;;;;16.09;100.00;100828.88;5063991;28;20029;-72
2022/06/25 01:15:34;;;;;;;6.50;3.22;;;;;;;16.08;100.00;100834.19;5073033;28;20047;-71
2022/06/25 01:18:00;;;;;;;8.15;3.15;;;;;;;16.05;100.00;100832.53;5074476;28;20224;-71
2022/06/25 01:20:26;;;;;;;5.15;3.00;;;;;;;16.05;100.00;100834.31;5072018;28;20099;-72
2022/06/25 01:22:52;;;;;;;3.70;3.20;;;;;;;15.99;100.00;100826.72;5071226;28;20425;-72
2022/06/25 01:25:17;;;;;;;6.32;3.00;;;;;;;16.01;100.00;100838.88;5074296;28;20029;-72
2022/06/25 01:27:45;;;;;;;5.68;3.25;;;;;;;15.99;100.00;100847.75;5060111;28;20016;-72
2022/06/25 01:30:12;;;;;;;6.90;3.20;;;;;;;15.93;100.00;100842.81;5074428;28;20032;-71
2022/06/25 01:32:37;;;;;;;6.57;3.45;;;;;;;15.87;100.00;100844.78;5068918;28;20090;-72
2022/06/25 01:35:04;;;;;;;8.55;3.50;;;;;;;15.92;100.00;100857.69;5069803;28;20024;-72
2022/06/25 01:37:30;;;;;;;5.15;3.35;;;;;;;15.86;100.00;100852.75;5073496;28;20032;-72
2022/06/25 01:39:57;;;;;;;6.38;3.40;;;;;;;15.85;100.00;100856.28;5073918;28;20170;-72
2022/06/25 01:45:08;;;;;;;4.85;3.65;;;;;;;15.83;100.00;100868.66;5067534;28;20172;-72
2022/06/25 01:47:33;;;;;;;7.00;3.50;;;;;;;15.77;100.00;100869.78;5073895;28;20028;-72
2022/06/25 01:49:59;;;;;;;5.18;3.70;;;;;;;15.80;100.00;100866.16;5074521;28;20027;-71
2022/06/25 01:52:24;;;;;;;5.60;3.60;;;;;;;15.77;100.00;100867.16;5071001;28;20171;-72
2022/06/25 01:54:50;;;;;;;7.05;3.90;;;;;;;15.73;100.00;100868.22;5054111;28;20064;-72
2022/06/25 01:57:15;;;;;;;4.95;3.85;;;;;;;15.72;100.00;100873.50;5068839;28;20077;-72
2022/06/25 01:59:40;;;;;;;9.65;3.92;;;;;;;15.68;100.00;100881.53;5073419;28;20476;-72
2022/06/25 02:02:05;;;;;;;8.27;3.97;;;;;;;15.63;100.00;100883.50;5073542;28;20470;-72
2022/06/25 02:04:31;;;;;;;5.88;4.07;;;;;;;15.63;100.00;100882.63;5072875;28;20020;-71
2022/06/25 02:06:56;;;;;;;5.97;4.20;;;;;;;15.63;100.00;100882.63;5073123;28;20032;-71
2022/06/25 02:09:21;;;;;;;6.90;4.30;;;;;;;15.60;100.00;100890.66;5074148;28;20043;-72
2022/06/25 02:11:47;;;;;;;6.90;4.53;;;;;;;15.56;100.00;100895.16;5072683;28;20094;-71
2022/06/25 02:14:12;;;;;;;5.20;4.20;;;;;;;15.53;100.00;100895.34;5070052;28;20032;-71
2022/06/25 02:16:37;;;;;;;8.85;4.38;;;;;;;15.52;100.00;100896.22;5073503;28;20357;-72
2022/06/25 02:19:03;;;;;;;6.70;4.07;;;;;;;15.52;100.00;100896.22;5071195;28;20035;-71
2022/06/25 02:21:29;;;;;;;6.72;4.15;;;;;;;15.55;100.00;100893.47;5072944;28;20449;-71
2022/06/25 02:23:55;;;;;;;5.03;4.20;;;;;;;15.49;100.00;100899.00;5072612;28;20082;-71
2022/06/25 02:26:20;;;;;;;6.93;4.60;;;;;;;15.48;100.00;100902.53;5073520;28;20032;-71
2022/06/25 02:28:46;;;;;;;7.85;4.70;;;;;;;15.45;100.00;100902.66;5066385;28;20389;-71
2022/06/25 02:31:12;;;;;;;8.07;5.18;;;;;;;15.36;100.00;100896.03;5065861;28;20040;-71
2022/06/25 02:33:37;;;;;;;7.55;4.55;;;;;;;15.36;100.00;100913.56;5068416;28;20097;-72
2022/06/25 02:36:03;;;;;;;6.35;4.50;;;;;;;15.35;100.00;100910.09;5073433;28;20456;-72
2022/06/25 02:38:28;;;;;;;5.68;4.40;;;;;;;15.35;100.00;100915.34;5073705;28;20029;-72
2022/06/25 02:40:54;;;;;;;6.68;4.40;;;;;;;15.37;100.00;100925.81;5072369;28;20032;-72
2022/06/25 02:43:19;;;;;;;4.70;4.20;;;;;;;15.34;100.00;100924.16;5065839;28;20078;-72
2022/06/25 02:45:45;;;;;;;7.90;4.28;;;;;;;15.35;100.00;100922.38;5073007;28;20020;-71
2022/06/25 02:48:10;;;;;;;6.22;4.47;;;;;;;15.30;100.00;100922.53;5073034;28;20043;-72
2022/06/25 02:50:36;;;;;;;12.93;4.72;;;;;;;15.26;100.00;100935.88;5072466;28;20028;-72
2022/06/25 02:53:01;;;;;;;5.75;4.30;;;;;;;15.28;100.00;100936.69;5071139;28;20028;-71
2022/06/25 03:00:54;;;;;;;6.13;4.90;;;;;;;15.37;100.00;100941.56;5072471;28;20064;-71
2022/06/25 03:03:19;;;;;;;6.43;4.80;;;;;;;15.38;100.00;100940.63;5062338;28;20021;-71
2022/06/25 03:05:45;;;;;;;7.47;4.82;;;;;;;15.41;100.00;100937.88;5069559;28;20381;-72
2022/06/25 03:08:10;;;;;;;7.15;4.88;;;;;;;15.37;100.00;100938.94;5071788;28;20048;-71
2022/06/25 03:10:35;;;;;;;8.18;5.43;;;;;;;15.34;100.00;100926.78;5068431;28;20052;-71
2022/06/25 03:13:01;;;;;;;8.77;5.07;;;;;;;15.33;100.00;100937.34;5071036;28;20030;-71
2022/06/25 03:15:26;;;;;;;6.20;4.95;;;;;;;15.31;100.00;100934.78;5072368;28;20050;-72
2022/06/25 03:17:51;;;;;;;8.68;5.40;;;;;;;15.28;100.00;100936.69;5071870;28;20029;-71
2022/06/25 03:20:16;;;;;;;8.82;5.47;;;;;;;15.23;100.00;100919.31;5073092;28;20016;-71
2022/06/25 03:22:42;;;;;;;8.75;5.35;;;;;;;15.25;100.00;100929.78;5069608;28;20039;-71
2022/06/25 03:25:08;;;;;;;6.03;4.85;;;;;;;15.26;100.00;100936.72;5072731;28;20028;-71
2022/06/25 03:27:33;;;;;;;7.28;5.18;;;;;;;15.32;100.00;100935.63;5072096;28;20020;-72
2022/06/25 03:29:59;;;;;;;8.13;4.90;;;;;;;15.33;100.00;100937.34;5057669;28;20039;-71
2022/06/25 03:32:24;;;;;;;6.30;4.55;;;;;;;15.35;100.00;100930.25;5070247;28;20373;-72
2022/06/25 03:34:50;;;;;;;6.75;4.78;;;;;;;15.44;100.00;100938.59;5068500;28;20115;-71
2022/06/25 03:37:15;;;;;;;8.63;4.95;;;;;;;15.48;100.00;100952.47;5072197;28;20022;-72
2022/06/25 03:39:40;;;;;;;7.63;4.55;;;;;;;15.50;100.00;100952.38;5071641;28;20036;-72
2022/06/25 03:42:06;;;;;;;5.15;4.60;;;;;;;15.57;100.00;100946.81;5072181;28;20063;-72
2022/06/25 03:44:31;;;;;;;5.93;4.53;;;;;;;15.62;100.00;100939.59;5062468;28;20032;-72
2022/06/25 03:46:56;;;;;;;7.25;4.88;;;;;;;15.70;100.00;100952.44;5071412;28;20025;-72
2022/06/25 03:49:21;;;;;;;6.70;4.50;;;;;;;15.75;100.00;100944.34;5072439;28;20035;-72
2022/06/25 03:51:47;;;;;;;7.95;4.82;;;;;;;15.80;100.00;100948.50;5069294;28;20028;-72
2022/06/25 03:54:12;;;;;;;9.50;4.65;;;;;;;15.82;100.00;100946.63;5062133;28;20020;-71
2022/06/25 03:56:37;;;;;;;6.00;4.10;;;;;;;15.88;100.00;100953.41;5071425;28;20047;-72
2022/06/25 03:59:03;;;;;;;5.32;4.43;;;;;;;15.86;100.00;100950.00;5064642;28;20476;-72
2022/06/25 04:01:28;;;;;;;8.07;4.78;;;;;;;15.86;100.00;100942.13;5061617;28;20047;-71
2022/06/25 04:03:53;;;;;;;7.15;4.50;;;;;;;15.84;100.00;100943.97;5059746;28;20870;-72
2022/06/25 04:06:18;;;;;;;8.75;4.70;;;;;;;15.85;100.00;100953.53;5071410;28;20059;-72
2022/06/25 04:08:44;;;;;;;6.55;4.57;;;;;;;15.84;100.00;100954.47;5070535;28;20031;-71
2022/06/25 04:11:10;;;;;;;6.22;4.28;;;;;;;15.92;100.00;100960.22;5071448;28;20042;-71
2022/06/25 04:13:35;;;;;;;5.97;4.47;;;;;;;15.88;100.00;100943.75;5068022;28;20061;-71
2022/06/25 04:16:01;;;;;;;7.35;4.38;;;;;;;15.95;100.00;100959.25;5071694;28;20019;-71
2022/06/25 04:18:26;;;;;;;8.05;5.05;;;;;;;16.03;100.00;100960.63;5063946;28;20512;-72
2022/06/25 04:20:51;;;;;;;7.55;4.47;;;;;;;16.08;100.00;100955.16;5065671;28;20487;-72
2022/06/25 04:23:16;;;;;;;5.03;4.50;;;;;;;16.14;100.00;100960.16;5069659;28;20031;-71
2022/06/25 04:25:42;;;;;;;4.53;4.13;;;;;;;16.20;100.00;100951.97;5068875;28;20020;-72
2022/06/25 04:30:51;;;;;;;7.82;4.47;;;;;;;16.29;100.00;100971.78;5060912;28;20047;-72
2022/06/25 04:33:17;;;;;;;7.20;4.35;;;;;;;16.37;100.00;100967.84;5070295;28;20021;-71
2022/06/25 04:35:43;;;;;;;5.78;4.43;;;;;;;16.46;100.00;100969.22;5065314;28;20111;-72
2022/06/25 04:38:11;;;;;;;5.57;4.13;;;;;;;16.53;100.00;100969.78;5071127;28;20112;-72
2022/06/25 04:40:36;;;;;;;9.40;4.18;;;;;;;16.60;100.00;100977.31;5069367;28;20435;-72
2022/06/25 04:43:02;;;;;;;6.15;4.40;;;;;;;16.62;100.00;100972.84;5066142;28;20033;-71
2022/06/25 04:45:27;;;;;;;6.68;3.97;;;;;;;16.63;100.00;100971.91;5064643;28;20058;-72
2022/06/25 04:47:59;;;;;;;6.63;4.28;;;;;;;16.73;98.54;100982.00;5071429;28;20032;-71
2022/06/25 04:50:24;;;;;;;6.13;3.90;;;;;;;16.82;99.12;100989.53;5070562;28;20111;-71
2022/06/25 04:52:49;;;;;;;6.45;4.47;;;;;;;16.96;99.37;100988.88;5066575;28;20041;-72
2022/06/25 04:55:15;;;;;;;4.38;3.85;;;;;;;17.06;98.45;100976.94;5069460;28;20113;-71
2022/06/25 04:57:40;;;;;;;5.32;3.95;;;;;;;17.09;97.95;100984.72;5068740;28;20029;-71
2022/06/25 05:00:06;;;;;;;7.93;4.35;;;;;;;17.12;98.85;100976.66;5064498;28;20090;-72
2022/06/25 05:02:31;;;;;;;6.28;4.47;;;;;;;17.13;97.63;100993.31;5071181;28;20525;-72
2022/06/25 05:04:57;;;;;;;5.05;3.97;;;;;;;17.11;96.43;100998.66;5074979;28;20032;-72
2022/06/25 05:07:22;;;;;;;6.43;3.88;;;;;;;17.07;98.52;100995.34;5075390;28;20144;-72
2022/06/25 05:09:47;;;;;;;5.32;4.05;;;;;;;17.03;97.51;101004.28;5074441;28;20029;-71
2022/06/25 05:13:11;;;;;;;5.35;3.90;;;;;;;16.95;98.30;100995.91;5068102;28;20062;-72
2022/06/25 05:14:58;;;;;;;5.20;4.28;;;;;;;16.89;98.67;100996.19;5074339;28;20035;-71
2022/06/25 05:17:23;;;;;;;8.98;4.20;;;;;;;16.83;98.33;101004.38;5074979;28;20025;-72
2022/06/25 05:19:48;;;;;;;7.82;4.55;;;;;;;16.79;97.74;101000.19;5073745;28;20483;-71
2022/06/25 05:22:14;;;;;;;6.38;4.00;;;;;;;16.72;98.01;100999.59;5070899;28;20029;-72
2022/06/25 05:24:39;;;;;;;6.30;4.20;;;;;;;16.84;98.96;101014.00;5072734;28;20062;-72
2022/06/25 05:27:04;;;;;;;10.52;4.30;;;;;;;16.97;99.32;101009.00;5075291;28;20020;-72
2022/06/25 05:29:30;;;;;;;9.02;3.85;;;;;;;17.05;99.12;101004.22;5061792;28;20029;-71
2022/06/25 05:31:55;;;;;;;6.88;4.07;;;;;;;17.19;98.15;101009.69;5067098;28;20039;-72
2022/06/25 05:34:20;;;;;;;5.28;4.30;;;;;;;17.37;97.17;101021.13;5065415;28;20085;-71
2022/06/25 05:36:47;;;;;;;4.13;3.60;;;;;;;17.48;94.09;101010.03;5073364;28;20444;-72
2022/06/25 05:39:12;;;;;;;6.00;4.03;;;;;;;17.59;94.37;101014.78;5074648;28;20100;-72
2022/06/25 05:41:37;;;;;;;4.43;3.53;;;;;;;17.70;94.68;101015.94;5072296;28;20107;-71
2022/06/25 05:44:03;;;;;;;4.75;3.55;;;;;;;17.71;95.06;101022.91;5063329;28;20032;-72
2022/06/25 05:46:28;;;;;;;7.47;4.45;;;;;;;17.68;94.93;101024.88;5074555;28;20028;-72
2022/06/25 05:48:53;;;;;;;5.20;3.92;;;;;;;17.67;96.05;101024.00;5072332;28;20044;-71
2022/06/25 05:51:18;;;;;;;8.15;4.20;;;;;;;17.66;93.61;101026.75;5070897;28;20029;-71
2022/06/25 05:53:44;;;;;;;6.88;4.25;;;;;;;17.64;93.51;101028.59;5072757;28;20080;-71
2022/06/25 05:56:09;;;;;;;7.88;4.40;;;;;;;17.62;95.86;101035.72;5074303;28;20037;-71
2022/06/25 05:58:34;;;;;;;10.45;5.10;;;;;;;17.66;94.15;101039.94;5066173;28;20033;-72
2022/06/25 06:00:59;;;;;;;5.93;4.35;;;;;;;17.74;95.52;101040.38;5070274;28;20033;-71
2022/06/25 06:03:25;;;;;;;5.65;4.43;;;;;;;17.96;94.52;101042.81;5071926;28;20043;-72
2022/06/25 06:05:50;;;;;;;8.68;4.30;;;;;;;18.18;91.80;101039.91;5072836;28;20028;-72
2022/06/25 06:08:15;;;;;;;5.90;4.35;;;;;;;18.36;92.11;101036.31;5072622;28;20060;-72
2022/06/25 06:10:41;;;;;;;6.68;4.38;;;;;;;18.48;90.92;101043.59;5071348;28;20480;-72
2022/06/25 06:13:06;;;;;;;6.93;4.35;;;;;;;18.56;91.01;101037.03;5072928;28;20029;-72
2022/06/25 06:15:32;;;;;;;4.78;3.90;;;;;;;18.53;89.76;101040.69;5074652;28;20052;-72
2022/06/25 06:17:57;;;;;;;10.18;4.07;;;;;;;18.52;88.24;101032.88;5071102;28;20395;-72
2022/06/25 06:20:22;;;;;;;5.88;4.20;;;;;;;18.54;88.89;101049.47;5064916;28;20067;-72
2022/06/25 06:22:48;;;;;;;7.05;4.07;;;;;;;18.49;87.64;101055.84;5073270;28;20027;-71
2022/06/25 06:25:13;;;;;;;7.47;3.72;;;;;;;18.51;90.21;101057.53;5073923;28;20532;-71
2022/06/25 06:27:38;;;;;;;4.72;3.38;;;;;;;18.53;88.73;101064.47;5070505;28;20035;-72
2022/06/25 06:30:05;;;;;;;4.82;3.40;;;;;;;18.61;88.93;101064.06;5072449;28;20021;-72
2022/06/25 06:32:30;;;;;;;5.68;3.83;;;;;;;18.65;89.21;101060.31;5073444;28;20113;-72
2022/06/25 06:34:56;;;;;;;4.93;3.22;;;;;;;18.63;87.05;101062.19;5072809;28;20113;-72
2022/06/25 06:37:21;;;;;;;5.15;3.70;;;;;;;18.58;88.81;101074.78;5069842;28;20025;-72
2022/06/25 06:39:46;;;;;;;5.72;3.80;;;;;;;18.56;89.42;101064.28;5064793;28;20052;-71
2022/06/25 06:42:12;;;;;;;6.30;3.47;;;;;;;18.53;89.57;101066.25;5072711;28;20028;-71
2022/06/25 06:44:37;;;;;;;6.80;3.78;;;;;;;18.59;89.68;101068.56;5071199;28;20043;-72
2022/06/25 06:47:03;;;;;;;9.27;3.80;;;;;;;18.57;87.81;101062.50;5072213;28;20024;-72
2022/06/25 06:49:28;;;;;;;5.13;3.65;;;;;;;18.62;87.27;101077.19;5064212;28;20082;-71
2022/06/25 06:51:53;;;;;;;5.15;3.75;;;;;;;18.68;88.13;101079.50;5067051;28;20101;-72
2022/06/25 06:54:19;;;;;;;9.70;4.03;;;;;;;18.69;88.59;101077.69;5072822;28;20040;-72
2022/06/25 06:56:44;;;;;;;7.43;3.50;;;;;;;18.72;87.92;101072.28;5072196;28;20480;-72
2022/06/25 06:59:09;;;;;;;6.32;3.40;;;;;;;18.75;84.78;101069.47;5067256;28;20025;-72
2022/06/25 07:01:35;;;;;;;6.63;3.38;;;;;;;18.82;85.58;101070.84;5062864;28;20055;-72
2022/06/25 07:04:00;;;;;;;5.18;3.30;;;;;;;18.91;87.04;101065.06;5072904;28;20107;-72
2022/06/25 07:06:26;;;;;;;6.57;3.60;;;;;;;19.05;86.95;101066.09;5072548;28;20020;-72
2022/06/25 07:08:51;;;;;;;4.45;3.30;;;;;;;19.07;83.82;101066.88;5063613;28;20374;-72
2022/06/25 07:11:29;;;;;;;5.57;3.40;;;;;;;19.15;83.60;101075.22;5071623;28;20508;-72
2022/06/25 07:14:04;;;;;;;5.30;3.20;;;;;;;19.20;84.79;101062.63;5070660;28;20590;-71
2022/06/25 07:16:30;;;;;;;7.38;3.60;;;;;;;19.31;84.13;101065.50;5071393;28;20020;-72
2022/06/25 07:18:57;;;;;;;4.13;3.20;;;;;;;19.42;84.15;101068.41;5072379;28;20056;-72
2022/06/25 07:21:22;;;;;;;4.72;3.28;;;;;;;19.49;82.17;101065.38;5071665;28;20127;-72
2022/06/25 07:23:48;;;;;;;5.25;3.13;;;;;;;19.51;84.30;101071.44;5069734;28;20474;-72
2022/06/25 07:26:14;;;;;;;6.50;3.10;;;;;;;19.57;83.90;101073.75;5063146;28;20032;-72
2022/06/25 07:28:39;;;;;;;6.60;3.22;;;;;;;19.68;82.20;101081.94;5065913;28;20108;-72
2022/06/25 07:31:05;;;;;;;4.65;3.03;;;;;;;19.73;80.30;101086.97;5064379;28;20028;-72
2022/06/25 07:33:30;;;;;;;8.38;3.50;;;;;;;19.67;82.05;101082.03;5072476;28;20073;-72
2022/06/25 07:35:57;;;;;;;5.95;2.90;;;;;;;19.86;80.51;101072.94;5069533;28;20090;-72
2022/06/25 07:38:22;;;;;;;5.18;3.40;;;;;;;20.35;77.88;101083.25;5072379;28;20056;-72
2022/06/25 07:40:47;;;;;;;8.60;3.15;;;;;;;20.68;76.69;101081.31;5070804;28;20457;-72
2022/06/25 07:43:13;;;;;;;8.20;3.20;;;;;;;20.72;75.00;101073.06;5072137;28;20024;-72
2022/06/25 07:45:38;;;;;;;4.18;2.85;;;;;;;20.67;78.30;101077.81;5058280;28;20464;-72
2022/06/25 07:48:04;;;;;;;3.55;2.58;;;;;;;20.52;77.00;101086.69;5058831;28;20028;-72
2022/06/25 07:53:12;;;;;;;6.05;2.63;;;;;;;20.78;75.83;101087.72;5072451;28;20043;-72
2022/06/25 07:55:38;;;;;;;6.32;2.45;;;;;;;20.87;74.12;101086.31;5071279;28;20040;-72
2022/06/25 07:58:03;;;;;;;5.22;2.42;;;;;;;21.00;75.94;101084.59;5067775;28;20086;-72
2022/06/25 08:00:28;;;;;;;6.25;2.70;;;;;;;21.20;73.76;101085.97;5063728;28;20124;-72
2022/06/25 08:02:54;;;;;;;4.35;2.58;;;;;;;21.43;72.19;101076.56;5070495;28;20040;-72
2022/06/25 08:05:19;;;;;;;3.33;2.33;;;;;;;21.48;73.27;101085.94;5071381;28;20027;-72
2022/06/25 08:07:49;;;;;;;4.05;2.20;;;;;;;21.41;74.85;101074.00;5071306;28;20027;-74
2022/06/25 08:10:14;;;;;;;5.90;3.00;;;;;;;21.44;72.25;101079.09;5071980;28;20464;-74
2022/06/25 08:12:40;;;;;;;4.55;2.45;;;;;;;21.35;74.46;101077.03;5071969;28;20052;-74
2022/06/25 08:15:06;;;;;;;5.70;2.20;;;;;;;21.23;74.58;101078.66;5085863;28;20464;-74
2022/06/25 08:17:34;;;;;;;4.68;2.17;;;;;;;20.98;74.74;101086.47;5077085;28;20023;-73
2022/06/25 08:19:59;;;;;;;3.75;2.40;;;;;;;20.69;76.03;101091.78;5072461;28;20028;-73
2022/06/25 08:22:25;;;;;;;3.80;2.42;;;;;;;20.42;79.29;101091.66;5080743;28;20047;-74
2022/06/25 08:24:50;;;;;;;2.63;2.13;;;;;;;20.23;77.77;101094.56;5071124;28;20051;-74
2022/06/25 08:27:16;;;;;;;4.20;2.40;;;;;;;20.09;81.43;101094.53;5073928;28;20029;-74
2022/06/25 08:29:41;;;;;;;3.88;2.40;;;;;;;20.19;78.07;101098.34;5058947;28;20465;-74
2022/06/25 08:32:07;;;;;;;4.63;2.28;;;;;;;20.33;79.21;101094.88;5070341;28;20078;-74
2022/06/25 08:34:32;;;;;;;5.47;2.30;;;;;;;20.34;79.67;101099.25;5067155;28;20020;-74
2022/06/25 08:36:58;;;;;;;3.78;2.20;;;;;;;20.16;80.31;101089.75;5069736;28;20106;-74
2022/06/25 08:39:23;;;;;;;6.07;2.70;;;;;;;19.94;81.69;101091.00;5069534;28;20439;-75
2022/06/25 08:41:48;;;;;;;9.32;2.78;;;;;;;19.78;83.89;101090.19;5070747;28;20032;-74
2022/06/25 08:44:14;;;;;;;5.78;2.72;;;;;;;19.80;81.83;101093.59;5071795;28;20426;-74
2022/06/25 08:46:40;;;;;;;5.07;2.20;;;;;;;19.94;80.25;101100.72;5070476;28;20025;-74
2022/06/25 08:49:05;;;;;;;3.47;2.58;;;;;;;20.13;81.45;101100.50;5057431;28;20016;-74
2022/06/25 08:51:32;;;;;;;4.72;2.53;;;;;;;20.34;77.08;101088.66;5071988;28;20094;-74
2022/06/25 08:53:59;;;;;;;6.20;2.67;;;;;;;20.55;75.36;101102.41;5065715;28;20020;-74
2022/06/25 08:56:26;;;;;;;5.05;2.20;;;;;;;20.94;73.43;101103.53;5071505;28;20033;-74
2022/06/25 08:58:51;;;;;;;4.20;1.98;;;;;;;21.67;74.23;101090.84;5070907;28;20033;-74
2022/06/25 09:01:16;;;;;;;2.80;2.03;;;;;;;22.17;71.67;101086.66;5069583;28;20090;-74
2022/06/25 09:03:43;;;;;;;5.88;2.20;;;;;;;22.40;70.59;101094.84;5068498;28;20039;-74
2022/06/25 09:06:17;;;;;;;5.07;2.03;;;;;;;22.75;70.50;101091.53;5071774;28;20025;-74
2022/06/25 09:08:43;;;;;;;3.88;1.98;;;;;;;23.03;68.27;101079.81;5070264;28;20024;-74
2022/06/25 09:11:09;;;;;;;3.88;2.25;;;;;;;22.92;67.78;101093.81;5069308;28;20025;-74
2022/06/25 09:13:35;;;;;;;7.65;2.42;;;;;;;22.59;70.68;101103.22;5058646;28;20060;-74
2022/06/25 09:16:00;;;;;;;4.82;2.17;;;;;;;22.34;70.85;101097.94;5067903;28;20483;-74
2022/06/25 09:18:26;;;;;;;4.93;2.20;;;;;;;22.33;69.67;101096.22;5071591;28;20029;-75
2022/06/25 09:20:56;;;;;;;3.15;2.15;;;;;;;22.26;71.05;101103.75;5069268;28;20581;-75
2022/06/25 09:23:21;;;;;;;3.53;1.95;;;;;;;22.39;72.39;101103.75;5050547;28;20025;-75
2022/06/25 09:26:00;;;;;;;5.60;2.10;;;;;;;22.72;70.62;101094.41;5064818;28;20456;-75
2022/06/25 09:28:30;;;;;;;2.72;1.63;;;;;;;22.97;70.51;101091.72;5067332;28;20024;-75
2022/06/25 09:30:56;;;;;;;3.38;1.80;;;;;;;23.10;69.49;101100.53;5064893;28;20025;-75
2022/06/25 09:33:21;;;;;;;4.60;2.20;;;;;;;23.10;67.28;101094.38;5072476;28;20130;-75
2022/06/25 09:35:50;;;;;;;9.20;2.38;;;;;;;23.30;67.52;101092.91;5073911;28;20025;-75
2022/06/25 09:38:17;;;;;;;3.13;2.05;;;;;;;23.47;69.25;101097.84;5074586;28;20030;-75
2022/06/25 09:40:59;;;;;;;2.83;2.20;;;;;;;23.71;66.79;101092.56;5069364;28;20487;-75
2022/06/25 09:43:34;;;;;;;3.38;2.20;;;;;;;23.64;66.18;101093.06;5066091;28;20384;-74
2022/06/25 09:46:03;;;;;;;3.38;1.90;;;;;;;23.62;65.55;101087.88;5063463;28;20059;-75
2022/06/25 09:48:30;;;;;;;2.58;1.50;;;;;;;23.88;64.07;101093.09;5073310;28;20032;-75
2022/06/25 09:51:26;;;;;;;3.92;1.83;;;;;;;24.27;64.71;101099.88;5073377;28;20054;-75
2022/06/25 09:53:54;;;;;;;2.95;1.90;;;;;;;24.25;62.49;101099.97;5057207;28;20043;-75
2022/06/25 09:56:25;;;;;;;3.88;1.77;;;;;;;24.25;60.29;101094.66;5059940;28;20074;-75
2022/06/25 09:58:50;;;;;;;4.85;1.75;;;;;;;24.26;63.29;101103.47;5071067;28;20016;-75
2022/06/25 10:01:19;;;;;;;4.00;1.63;;;;;;;24.20;61.79;101104.81;5074632;28;20074;-75
2022/06/25 10:03:46;;;;;;;2.78;1.63;;;;;;;24.22;60.24;101102.88;5073115;28;20048;-75
2022/06/25 10:06:16;;;;;;;3.55;1.77;;;;;;;24.21;59.41;101106.50;5074164;28;20529;-75
2022/06/25 10:08:59;;;;;;;2.67;1.85;;;;;;;24.26;60.74;101104.34;5073672;28;20036;-75
2022/06/25 10:11:27;;;;;;;2.35;1.92;;;;;;;24.27;59.19;101099.88;5061409;28;20028;-75
2022/06/25 10:13:53;;;;;;;3.58;1.90;;;;;;;24.21;59.66;101101.19;5073569;28;20051;-75
2022/06/25 10:16:23;;;;;;;3.90;1.80;;;;;;;24.34;62.89;101100.25;5079037;28;20025;-75
2022/06/25 10:18:50;;;;;;;5.75;2.00;;;;;;;24.32;60.81;101097.69;5073121;28;20074;-75
2022/06/25 10:21:17;;;;;;;5.20;1.73;;;;;;;24.01;62.53;101093.88;5074001;28;20074;-75
2022/06/25 10:23:44;;;;;;;2.80;1.77;;;;;;;23.71;60.83;101097.03;5073584;28;20035;-75
2022/06/25 10:26:10;;;;;;;3.30;1.45;;;;;;;23.65;62.09;101089.47;5073251;28;20024;-75
2022/06/25 10:28:36;;;;;;;2.72;1.60;;;;;;;23.78;63.35;101088.47;5072579;28;20039;-75
2022/06/25 10:31:14;;;;;;;4.93;1.85;;;;;;;24.05;60.95;101077.53;5073975;28;20024;-75
2022/06/25 10:34:02;;;;;;;2.88;1.60;;;;;;;24.26;60.02;101087.50;5068371;28;20545;-75
2022/06/25 10:36:48;;;;;;;4.07;1.50;;;;;;;24.28;58.64;101077.59;5073990;28;20029;-75
2022/06/25 10:39:22;;;;;;;1.45;1.35;;;;;;;24.25;61.06;101078.66;5062537;28;20158;-75
2022/06/25 10:45:14;;;;;;;2.80;1.30;;;;;;;24.79;56.33;101078.97;5073465;28;20389;-76
2022/06/25 10:47:48;;;;;;;1.33;1.23;;;;;;;24.92;57.68;101093.88;5060504;28;20052;-76
2022/06/25 10:50:22;;;;;;;2.65;1.30;;;;;;;25.31;58.21;101085.44;5068870;28;20044;-76
2022/06/25 10:53:02;;;;;;;2.13;1.30;;;;;;;25.67;56.92;101087.78;5063000;28;20116;-76
2022/06/25 10:55:28;;;;;;;2.45;1.40;;;;;;;25.46;53.61;101079.72;5057271;28;20404;-76
2022/06/25 10:58:14;;;;;;;1.73;1.40;;;;;;;25.77;56.94;101082.53;5072753;28;20039;-76
2022/06/25 11:01:01;;;;;;;1.35;1.10;;;;;;;25.90;55.79;101082.38;5070103;28;20016;-76
2022/06/25 11:03:27;;;;;;;1.45;1.25;;;;;;;25.78;53.06;101080.69;5065853;28;20044;-76
2022/06/25 11:05:53;;;;;;;1.50;1.10;;;;;;;25.75;52.10;101081.78;5072440;28;20540;-76
2022/06/25 11:08:18;;;;;;;1.30;1.00;;;;;;;25.66;52.89;101077.22;5071104;28;20024;-76
2022/06/25 11:10:43;;;;;;;1.55;1.13;;;;;;;25.65;55.33;101081.72;5071345;28;20099;-75
2022/06/25 11:13:09;;;;;;;2.22;1.17;;;;;;;25.76;54.61;101078.13;5073074;28;20021;-76
2022/06/25 11:15:44;;;;;;;1.88;1.35;;;;;;;25.94;54.15;101073.13;5071735;28;20027;-76
2022/06/25 11:18:13;;;;;;;4.35;1.30;;;;;;;25.99;49.11;101070.03;5069714;28;20044;-76
2022/06/25 11:20:41;;;;;;;2.60;1.10;;;;;;;25.85;53.84;101084.56;5072215;28;20415;-76
2022/06/25 11:23:11;;;;;;;2.95;1.33;;;;;;;26.04;53.94;101078.53;5058832;28;20034;-75
2022/06/25 11:28:52;;;;;;;4.95;1.27;;;;;;;26.94;50.40;101077.84;5055825;28;20052;-76
2022/06/25 11:31:21;;;;;;;1.77;1.08;;;;;;;26.81;53.71;101084.31;5066176;28;20379;-75
2022/06/25 11:33:50;;;;;;;2.78;1.30;;;;;;;26.67;54.13;101075.78;5070623;28;20380;-75
2022/06/25 11:36:16;;;;;;;3.80;1.17;;;;;;;26.73;51.05;101083.28;5070899;28;20024;-75
2022/06/25 11:38:43;;;;;;;1.65;1.10;;;;;;;26.66;50.82;101077.63;5071947;28;20040;-75
2022/06/25 11:41:27;;;;;;;5.38;1.40;;;;;;;26.61;52.04;101086.03;5072654;28;20101;-75
2022/06/25 11:43:53;;;;;;;1.55;1.20;;;;;;;26.32;52.47;101088.56;5067822;28;20485;-75
2022/06/25 11:46:19;;;;;;;2.15;1.00;;;;;;;26.13;50.03;101099.97;5072610;28;20036;-75